Terminal Aerodrome Forecast
Issued by NWS Jacksonville, FL

Home | Current Version | Previous Version | Text Only | Print | Product List | Glossary On
Versions: 1 2 3 4 5 6 7 8 9 10 11 12 13 14 15 16 17 18 19 20 21 22 23 24 25
000
FTUS42 KJAX 242000 AAA
TAFGNV
TAF AMD
KGNV 242030Z 2421/2518 25010G18KT P6SM VCSH SCT040
     FM250000 24002KT P6SM SCT250
     FM250700 VRB02KT 5SM BR FEW010 SCT120 BKN250
     FM251300 24007KT P6SM VCSH SCT035 BKN100 BKN250
     FM251600 23008KT P6SM VCTS SCT040CB BKN080 OVC200=

USA.gov is the U.S. government's official web portal to all federal, state and local government web resources and services.